createdAt,value
2019-02-21T00:02:12.191Z,6.27
2019-02-21T00:04:40.953Z,6.20
2019-02-21T00:07:09.744Z,6.23
2019-02-21T00:09:38.558Z,6.50
2019-02-21T00:12:07.308Z,5.63
2019-02-21T00:14:36.121Z,5.93
2019-02-21T00:17:04.870Z,5.83
2019-02-21T00:19:33.650Z,6.07
2019-02-21T00:22:02.389Z,6.37
2019-02-21T00:24:31.171Z,6.37
2019-02-21T00:26:59.914Z,5.80
2019-02-21T00:29:29.610Z,6.77
2019-02-21T00:31:58.366Z,5.90
2019-02-21T00:34:27.105Z,5.93
2019-02-21T00:36:55.864Z,6.40
2019-02-21T00:39:24.640Z,6.40
2019-02-21T00:41:53.468Z,6.13
2019-02-21T00:44:22.226Z,5.67
2019-02-21T00:46:51.000Z,6.30
2019-02-21T00:49:19.801Z,6.13
2019-02-21T00:51:48.530Z,6.47
2019-02-21T00:54:17.305Z,5.93
2019-02-21T00:56:46.112Z,6.43
2019-02-21T00:59:14.842Z,6.27
2019-02-21T01:01:43.662Z,6.27
2019-02-21T01:04:12.412Z,6.20
2019-02-21T01:06:41.239Z,6.53
2019-02-21T01:09:09.998Z,6.33
2019-02-21T01:11:38.824Z,6.67
2019-02-21T01:14:07.601Z,6.33
2019-02-21T01:16:36.420Z,5.97
2019-02-21T01:19:05.202Z,6.03
2019-02-21T01:21:33.950Z,6.00
2019-02-21T01:24:04.943Z,5.83
2019-02-21T01:26:33.270Z,6.23
2019-02-21T01:29:02.013Z,6.70
2019-02-21T01:31:30.780Z,6.57
2019-02-21T01:33:59.534Z,6.17
2019-02-21T01:36:28.303Z,6.57
2019-02-21T01:38:57.047Z,6.87
2019-02-21T01:41:25.824Z,5.90
2019-02-21T01:43:54.576Z,6.20
2019-02-21T01:46:23.315Z,6.13
2019-02-21T01:48:52.088Z,6.77
2019-02-21T01:51:20.898Z,6.73
2019-02-21T01:53:49.631Z,6.40
2019-02-21T01:56:18.426Z,6.83
2019-02-21T01:58:47.210Z,6.47
2019-02-21T02:01:16.009Z,6.57
2019-02-21T02:03:44.824Z,6.27
2019-02-21T02:06:13.578Z,6.10
2019-02-21T02:08:42.306Z,5.97
2019-02-21T02:11:11.066Z,6.70
2019-02-21T02:13:39.796Z,7.30
2019-02-21T02:16:08.538Z,6.27
2019-02-21T02:18:37.290Z,6.40
2019-02-21T02:21:06.382Z,6.60
2019-02-21T02:23:35.127Z,6.17
2019-02-21T02:26:03.856Z,6.50
2019-02-21T02:28:32.620Z,6.70
2019-02-21T02:31:01.397Z,6.20
2019-02-21T02:33:30.152Z,6.43
2019-02-21T02:35:58.894Z,6.40
2019-02-21T02:38:27.664Z,6.67
2019-02-21T02:40:56.423Z,6.37
2019-02-21T02:43:25.167Z,5.73
2019-02-21T02:45:53.909Z,6.77
2019-02-21T02:48:22.635Z,6.60
2019-02-21T02:50:51.440Z,6.47
2019-02-21T02:53:20.227Z,6.73
2019-02-21T02:55:48.968Z,6.80
2019-02-21T02:58:17.700Z,7.00
2019-02-21T03:00:46.539Z,7.27
2019-02-21T03:03:15.364Z,6.40
2019-02-21T03:05:44.108Z,7.37
2019-02-21T03:08:12.856Z,6.33
2019-02-21T03:10:41.631Z,6.17
2019-02-21T03:13:10.443Z,7.20
2019-02-21T03:15:39.179Z,6.93
2019-02-21T03:18:07.946Z,6.53
2019-02-21T03:20:36.698Z,6.87
2019-02-21T03:23:05.461Z,7.00
2019-02-21T03:25:34.273Z,6.33
2019-02-21T03:28:03.042Z,6.90
2019-02-21T03:30:31.791Z,6.57
2019-02-21T03:33:00.580Z,6.63
2019-02-21T03:35:29.442Z,6.80
2019-02-21T03:37:58.288Z,7.17
2019-02-21T03:40:27.019Z,6.67
2019-02-21T03:42:55.750Z,7.00
2019-02-21T03:45:24.535Z,6.50
2019-02-21T03:47:53.290Z,6.37
2019-02-21T03:50:22.074Z,6.50
2019-02-21T03:52:50.807Z,6.67
2019-02-21T03:55:19.578Z,6.50
2019-02-21T03:57:48.395Z,7.03
2019-02-21T04:00:17.200Z,6.93
2019-02-21T04:02:46.014Z,7.27
2019-02-21T04:05:14.795Z,7.03
2019-02-21T04:07:43.579Z,7.47
2019-02-21T04:10:12.391Z,6.30
2019-02-21T04:12:41.139Z,6.30
2019-02-21T04:15:11.327Z,6.97
2019-02-21T04:17:40.069Z,7.10
2019-02-21T04:20:08.823Z,7.47
2019-02-21T04:22:37.584Z,6.90
2019-02-21T04:25:06.373Z,6.30
2019-02-21T04:27:35.264Z,6.57
2019-02-21T04:30:04.153Z,6.93
2019-02-21T04:32:32.982Z,7.33
2019-02-21T04:35:01.826Z,6.73
2019-02-21T04:37:30.585Z,6.77
2019-02-21T04:39:59.336Z,7.00
2019-02-21T04:42:28.167Z,6.57
2019-02-21T04:44:56.923Z,7.17
2019-02-21T04:47:25.655Z,7.00
2019-02-21T04:49:54.405Z,6.97
2019-02-21T04:52:23.179Z,6.93
2019-02-21T04:54:51.911Z,7.03
2019-02-21T04:57:20.690Z,7.10
2019-02-21T04:59:49.500Z,7.00
2019-02-21T05:02:28.554Z,7.60
2019-02-21T05:04:48.699Z,7.50
2019-02-21T05:07:17.480Z,7.40
2019-02-21T05:09:57.616Z,7.97
2019-02-21T05:12:16.907Z,6.83
2019-02-21T05:14:45.774Z,7.03
2019-02-21T05:17:14.616Z,7.10
2019-02-21T05:19:43.391Z,7.13
2019-02-21T05:22:12.147Z,7.70
2019-02-21T05:24:40.892Z,8.13
2019-02-21T05:27:14.207Z,7.10
2019-02-21T05:29:42.991Z,6.80
2019-02-21T05:32:27.991Z,6.87
2019-02-21T05:35:02.739Z,7.27
2019-02-21T05:37:50.235Z,7.27
2019-02-21T05:40:47.015Z,7.50
2019-02-21T05:43:24.959Z,8.00
2019-02-21T05:46:27.947Z,8.60
2019-02-21T05:49:11.477Z,8.00
2019-02-21T05:51:52.813Z,7.90
2019-02-21T05:54:49.717Z,7.53
2019-02-21T05:57:40.382Z,7.67
2019-02-21T06:00:28.229Z,7.50
2019-02-21T06:03:10.507Z,8.13
2019-02-21T06:05:55.417Z,8.63
2019-02-21T06:08:55.052Z,7.07
2019-02-21T06:11:45.779Z,8.00
2019-02-21T06:14:42.815Z,7.93
2019-02-21T06:17:36.768Z,7.50
2019-02-21T06:20:23.220Z,7.90
2019-02-21T06:23:00.391Z,9.03
2019-02-21T06:25:59.246Z,8.80
2019-02-21T06:28:42.098Z,8.37
2019-02-21T06:31:17.110Z,7.70
2019-02-21T06:33:45.846Z,8.07
2019-02-21T06:36:14.597Z,7.73
2019-02-21T06:38:43.350Z,8.13
2019-02-21T06:41:12.186Z,7.50
2019-02-21T06:43:40.936Z,7.63
2019-02-21T06:46:09.683Z,8.10
2019-02-21T06:48:38.504Z,8.27
2019-02-21T06:51:07.318Z,8.13
2019-02-21T06:53:36.060Z,7.97
2019-02-21T06:56:04.869Z,7.87
2019-02-21T06:58:33.596Z,7.40
2019-02-21T07:01:02.355Z,8.13
2019-02-21T07:03:31.132Z,7.60
2019-02-21T07:05:59.875Z,8.33
2019-02-21T07:08:28.635Z,7.83
2019-02-21T07:11:05.742Z,8.40
2019-02-21T07:13:27.909Z,8.07
2019-02-21T07:15:58.456Z,8.17
2019-02-21T07:18:28.913Z,7.87
2019-02-21T07:20:57.582Z,7.57
2019-02-21T07:23:27.295Z,7.43
2019-02-21T07:26:02.262Z,7.50
2019-02-21T07:28:30.989Z,8.00
2019-02-21T07:30:59.736Z,8.03
2019-02-21T07:33:29.086Z,7.53
2019-02-21T07:35:57.920Z,7.33
2019-02-21T07:38:26.665Z,7.23
2019-02-21T07:40:55.492Z,7.93
2019-02-21T07:43:25.030Z,7.20
2019-02-21T07:45:53.843Z,7.63
2019-02-21T07:48:22.603Z,8.80
2019-02-21T07:50:51.409Z,7.77
2019-02-21T07:53:20.186Z,8.37
2019-02-21T07:55:48.972Z,8.00
2019-02-21T07:58:17.814Z,8.53
2019-02-21T08:00:46.734Z,7.33
2019-02-21T08:03:15.516Z,7.70
2019-02-21T08:05:44.306Z,7.60
2019-02-21T08:08:13.054Z,8.30
2019-02-21T08:10:41.808Z,8.60
2019-02-21T08:13:10.702Z,8.23
2019-02-21T08:15:39.462Z,8.20
2019-02-21T08:18:08.281Z,7.93
2019-02-21T08:20:40.919Z,7.67
2019-02-21T08:23:07.766Z,7.70
2019-02-21T08:25:36.536Z,7.60
2019-02-21T08:28:05.376Z,7.63
2019-02-21T08:30:34.351Z,8.20
2019-02-21T08:33:23.294Z,8.60
2019-02-21T08:35:54.003Z,8.80
2019-02-21T08:38:22.518Z,7.73
2019-02-21T08:40:53.235Z,7.50
2019-02-21T08:43:21.906Z,7.97
2019-02-21T08:45:50.666Z,7.60
2019-02-21T08:48:19.504Z,7.63
2019-02-21T08:50:51.011Z,7.90
2019-02-21T08:53:19.846Z,8.10
2019-02-21T08:55:48.666Z,7.77
2019-02-21T08:58:17.457Z,8.57
2019-02-21T09:00:46.299Z,8.70
2019-02-21T09:03:17.923Z,8.27
2019-02-21T09:05:45.555Z,7.43
2019-02-21T09:08:16.628Z,7.37
2019-02-21T09:10:44.958Z,7.27
2019-02-21T09:13:13.706Z,7.90
2019-02-21T09:15:42.472Z,8.57
2019-02-21T09:18:11.252Z,8.53
2019-02-21T09:20:40.023Z,7.70
2019-02-21T09:23:08.805Z,7.00
2019-02-21T09:25:37.691Z,7.53
2019-02-21T09:28:06.437Z,8.47
2019-02-21T09:30:35.295Z,8.23
2019-02-21T09:33:04.046Z,8.07
2019-02-21T09:35:32.868Z,8.27
2019-02-21T09:38:01.657Z,8.27
2019-02-21T09:40:30.382Z,8.73
2019-02-21T09:42:59.216Z,8.43
2019-02-21T09:45:27.992Z,7.83
2019-02-21T09:47:56.884Z,7.37
2019-02-21T09:50:26.980Z,7.20
2019-02-21T09:52:55.843Z,7.83
2019-02-21T09:55:24.609Z,11.43
2019-02-21T09:57:53.373Z,13.47
2019-02-21T10:00:22.185Z,8.10
2019-02-21T10:02:54.350Z,7.93
2019-02-21T10:05:21.633Z,8.00
2019-02-21T10:07:50.485Z,7.63
2019-02-21T10:10:19.261Z,8.20
2019-02-21T10:12:48.027Z,7.83
2019-02-21T10:15:16.800Z,8.60
2019-02-21T10:17:45.534Z,9.53
2019-02-21T10:20:16.529Z,9.53
2019-02-21T10:22:45.272Z,9.13
2019-02-21T10:25:16.889Z,8.47
2019-02-21T10:27:45.631Z,9.27
2019-02-21T10:30:15.428Z,9.00
2019-02-21T10:32:44.261Z,8.40
2019-02-21T10:35:13.038Z,8.30
2019-02-21T10:37:41.788Z,9.13
2019-02-21T10:40:11.293Z,8.67
2019-02-21T10:42:40.071Z,8.63
2019-02-21T10:45:11.377Z,8.47
2019-02-21T10:47:40.259Z,8.83
2019-02-21T10:50:13.969Z,8.20
2019-02-21T10:52:42.193Z,8.70
2019-02-21T10:55:11.223Z,8.37
2019-02-21T10:57:39.949Z,9.60
2019-02-21T11:00:12.768Z,9.07
2019-02-21T11:02:41.532Z,8.43
2019-02-21T11:05:10.571Z,8.50
2019-02-21T11:07:39.424Z,9.20
2019-02-21T11:10:08.813Z,8.00
2019-02-21T11:12:37.583Z,8.37
2019-02-21T11:15:09.025Z,8.60
2019-02-21T11:17:37.874Z,8.40
2019-02-21T11:20:08.924Z,8.37
2019-02-21T11:22:37.765Z,7.90
2019-02-21T11:25:06.529Z,8.20
2019-02-21T11:27:35.300Z,8.67
2019-02-21T11:30:04.942Z,9.37
2019-02-21T11:32:33.714Z,8.80
2019-02-21T11:35:06.374Z,13.70
2019-02-21T11:37:42.687Z,9.10
2019-02-21T11:40:05.515Z,11.07
2019-02-21T11:42:34.185Z,12.10
2019-02-21T11:45:02.970Z,9.07
2019-02-21T11:47:31.875Z,11.93
2019-02-21T11:50:00.831Z,12.13
2019-02-21T11:52:29.623Z,9.73
2019-02-21T11:54:58.473Z,8.23
2019-02-21T11:57:27.239Z,10.80
2019-02-21T11:59:56.011Z,8.03
2019-02-21T12:02:24.809Z,8.50
2019-02-21T12:04:53.660Z,8.23
2019-02-21T12:07:22.494Z,11.83
2019-02-21T12:09:51.310Z,8.47
2019-02-21T12:12:20.061Z,7.97
2019-02-21T12:14:48.821Z,8.60
2019-02-21T12:17:17.637Z,8.37
2019-02-21T12:19:46.403Z,7.23
2019-02-21T12:22:15.231Z,8.20
2019-02-21T12:24:44.137Z,7.57
2019-02-21T12:27:13.011Z,7.87
2019-02-21T12:29:41.760Z,7.60
2019-02-21T12:32:10.523Z,7.37
2019-02-21T12:34:39.295Z,7.13
2019-02-21T12:37:08.114Z,7.70
2019-02-21T12:39:36.882Z,6.90
2019-02-21T12:42:05.736Z,7.40
2019-02-21T12:44:34.633Z,6.80
2019-02-21T12:47:03.421Z,7.73
2019-02-21T12:49:32.787Z,7.30
2019-02-21T12:52:01.617Z,6.77
2019-02-21T12:54:30.385Z,8.63
2019-02-21T12:56:59.240Z,6.80
2019-02-21T12:59:28.006Z,7.20
2019-02-21T13:01:56.845Z,6.70
2019-02-21T13:04:25.640Z,6.63
2019-02-21T13:06:54.394Z,6.57
2019-02-21T13:09:23.308Z,6.57
2019-02-21T13:11:52.072Z,6.60
2019-02-21T13:14:20.842Z,6.50
2019-02-21T13:16:49.625Z,6.53
2019-02-21T13:19:18.390Z,7.10
2019-02-21T13:21:47.183Z,5.87
2019-02-21T13:24:16.213Z,6.40
2019-02-21T13:26:45.098Z,6.83
2019-02-21T13:29:13.884Z,6.50
2019-02-21T13:31:42.705Z,7.33
2019-02-21T13:34:11.471Z,6.47
2019-02-21T13:36:40.326Z,6.63
2019-02-21T13:39:09.133Z,7.30
2019-02-21T13:41:37.930Z,7.43
2019-02-21T13:44:06.750Z,6.63
2019-02-21T13:46:37.905Z,7.20
2019-02-21T13:49:06.018Z,7.30
2019-02-21T13:51:34.806Z,8.37
2019-02-21T13:54:03.572Z,6.87
2019-02-21T13:56:32.319Z,7.37
2019-02-21T13:59:01.098Z,7.27
2019-02-21T14:01:29.921Z,6.83
2019-02-21T14:03:58.734Z,6.97
2019-02-21T14:06:27.559Z,6.73
2019-02-21T14:08:56.316Z,7.53
2019-02-21T14:11:25.158Z,7.40
2019-02-21T14:13:53.924Z,7.10
2019-02-21T14:16:22.681Z,7.73
2019-02-21T14:18:51.512Z,6.90
2019-02-21T14:21:20.271Z,7.00
2019-02-21T14:23:49.109Z,6.67
2019-02-21T14:26:17.873Z,6.83
2019-02-21T14:28:46.643Z,7.67
2019-02-21T14:31:15.446Z,7.37
2019-02-21T14:33:44.282Z,6.57
2019-02-21T14:36:16.827Z,6.50
2019-02-21T14:38:43.612Z,6.77
2019-02-21T14:41:12.550Z,7.10
2019-02-21T14:43:41.364Z,6.90
2019-02-21T14:46:10.239Z,6.63
2019-02-21T14:48:39.180Z,7.10
2019-02-21T14:51:08.035Z,7.23
2019-02-21T14:53:36.862Z,7.00
2019-02-21T14:56:05.628Z,6.93
2019-02-21T14:58:34.548Z,8.20
2019-02-21T15:01:03.410Z,6.93
2019-02-21T15:03:32.256Z,6.87
2019-02-21T15:06:01.103Z,6.83
2019-02-21T15:08:29.960Z,7.40
2019-02-21T15:10:58.775Z,8.27
2019-02-21T15:13:27.606Z,8.13
2019-02-21T15:15:56.414Z,6.93
2019-02-21T15:18:25.210Z,6.20
2019-02-21T15:20:54.114Z,7.13
2019-02-21T15:23:22.918Z,7.57
2019-02-21T15:25:51.674Z,6.57
2019-02-21T15:28:20.562Z,10.13
2019-02-21T15:30:49.561Z,7.53
2019-02-21T15:33:18.470Z,7.87
2019-02-21T15:35:47.333Z,9.47
2019-02-21T15:38:19.935Z,9.30
2019-02-21T15:40:47.549Z,7.80
2019-02-21T15:43:16.511Z,7.00
2019-02-21T15:45:45.354Z,6.30
2019-02-21T15:48:14.304Z,7.10
2019-02-21T15:50:43.301Z,8.00
2019-02-21T15:53:12.214Z,7.73
2019-02-21T15:55:41.219Z,6.37
2019-02-21T15:58:10.315Z,6.33
2019-02-21T16:00:39.133Z,6.73
2019-02-21T16:03:08.822Z,6.13
2019-02-21T16:05:38.149Z,6.70
2019-02-21T16:08:07.367Z,6.67
2019-02-21T16:10:36.363Z,6.70
2019-02-21T16:13:05.646Z,6.87
2019-02-21T16:15:34.724Z,6.50
2019-02-21T16:18:03.608Z,6.40
2019-02-21T16:20:32.529Z,6.40
2019-02-21T16:23:01.608Z,5.90
2019-02-21T16:25:30.614Z,6.40
2019-02-21T16:27:59.412Z,6.30
2019-02-21T16:30:28.215Z,6.33
2019-02-21T16:32:57.090Z,6.57
2019-02-21T16:35:27.285Z,6.00
2019-02-21T16:37:56.366Z,5.70
2019-02-21T16:40:25.299Z,6.97
2019-02-21T16:42:54.105Z,6.67
2019-02-21T16:45:22.925Z,6.37
2019-02-21T16:47:51.743Z,6.10
2019-02-21T16:50:29.372Z,6.77
2019-02-21T16:52:51.071Z,7.53
2019-02-21T16:55:19.861Z,7.57
2019-02-21T16:57:48.621Z,6.00
2019-02-21T17:00:17.960Z,5.77
2019-02-21T17:02:48.257Z,6.10
2019-02-21T17:05:17.079Z,6.70
2019-02-21T17:07:45.975Z,6.10
2019-02-21T17:10:14.881Z,5.80
2019-02-21T17:12:43.694Z,6.00
2019-02-21T17:15:12.701Z,6.80
2019-02-21T17:17:41.561Z,5.33
2019-02-21T17:20:12.074Z,5.47
2019-02-21T17:22:40.833Z,5.73
2019-02-21T17:25:10.261Z,5.50
2019-02-21T17:27:39.102Z,5.50
2019-02-21T17:30:08.940Z,5.30
2019-02-21T17:32:37.900Z,6.10
2019-02-21T17:35:06.819Z,5.60
2019-02-21T17:37:35.612Z,5.07
2019-02-21T17:40:04.812Z,5.80
2019-02-21T17:42:33.661Z,5.10
2019-02-21T17:45:02.478Z,4.97
2019-02-21T17:47:32.759Z,5.57
2019-02-21T17:50:01.747Z,6.07
2019-02-21T17:52:30.526Z,6.10
2019-02-21T17:54:59.309Z,6.33
2019-02-21T17:57:28.276Z,6.80
2019-02-21T17:59:57.649Z,6.10
2019-02-21T18:02:26.637Z,5.40
2019-02-21T18:04:55.565Z,7.10
2019-02-21T18:07:24.437Z,6.43
2019-02-21T18:09:53.247Z,9.03
2019-02-21T18:12:22.188Z,9.27
2019-02-21T18:14:51.121Z,11.07
2019-02-21T18:17:19.965Z,6.10
2019-02-21T18:19:48.746Z,7.30
2019-02-21T18:22:17.659Z,6.47
2019-02-21T18:24:46.489Z,6.13
2019-02-21T18:27:15.299Z,6.10
2019-02-21T18:29:44.098Z,5.60
2019-02-21T18:32:12.920Z,6.43
2019-02-21T18:34:41.770Z,5.97
2019-02-21T18:37:10.527Z,6.87
2019-02-21T18:39:39.377Z,6.00
2019-02-21T18:42:08.271Z,6.33
2019-02-21T18:44:37.136Z,5.30
2019-02-21T18:47:05.975Z,5.73
2019-02-21T18:49:34.770Z,6.17
2019-02-21T18:52:03.616Z,5.70
2019-02-21T18:54:32.497Z,5.80
2019-02-21T18:57:01.478Z,5.73
2019-02-21T18:59:31.863Z,18.90
2019-02-21T19:02:00.985Z,5.70
2019-02-21T19:04:29.742Z,6.13
2019-02-21T19:06:58.606Z,5.13
2019-02-21T19:09:27.603Z,5.50
2019-02-21T19:11:56.370Z,5.90
2019-02-21T19:14:25.213Z,5.93
2019-02-21T19:16:54.155Z,5.97
2019-02-21T19:19:22.886Z,6.13
2019-02-21T19:21:51.712Z,5.40
2019-02-21T19:24:20.471Z,5.40
2019-02-21T19:26:49.261Z,5.30
2019-02-21T19:29:18.169Z,5.50
2019-02-21T19:31:46.955Z,5.20
2019-02-21T19:34:15.695Z,5.87
2019-02-21T19:36:44.556Z,5.83
2019-02-21T19:39:13.429Z,5.90
2019-02-21T19:41:42.288Z,5.50
2019-02-21T19:44:11.043Z,5.33
2019-02-21T19:46:39.809Z,5.03
2019-02-21T19:49:08.564Z,5.40
2019-02-21T19:51:37.335Z,5.73
2019-02-21T19:54:06.124Z,5.10
2019-02-21T19:56:34.952Z,5.03
2019-02-21T19:59:03.790Z,5.60
2019-02-21T20:01:32.637Z,5.00
2019-02-21T20:04:01.559Z,5.07
2019-02-21T20:06:32.474Z,5.23
2019-02-21T20:09:00.953Z,5.33
2019-02-21T20:11:29.936Z,5.03
2019-02-21T20:13:58.763Z,5.57
2019-02-21T20:16:27.557Z,6.80
2019-02-21T20:18:56.309Z,5.47
2019-02-21T20:21:25.142Z,5.23
2019-02-21T20:23:53.899Z,5.43
2019-02-21T20:26:22.844Z,5.83
2019-02-21T20:28:51.698Z,5.37
2019-02-21T20:31:20.474Z,4.70
2019-02-21T20:33:49.319Z,5.40
2019-02-21T20:36:18.277Z,5.17
2019-02-21T20:38:47.053Z,5.47
2019-02-21T20:41:15.886Z,4.83
2019-02-21T20:43:44.719Z,4.87
2019-02-21T20:46:13.542Z,5.27
2019-02-21T20:48:42.435Z,5.03
2019-02-21T20:51:11.189Z,4.67
2019-02-21T20:53:39.945Z,5.00
2019-02-21T20:56:08.781Z,5.00
2019-02-21T20:58:37.569Z,5.50
2019-02-21T21:01:07.933Z,5.47
2019-02-21T21:03:36.770Z,5.27
2019-02-21T21:06:05.696Z,5.13
2019-02-21T21:08:42.686Z,5.00
2019-02-21T21:11:05.101Z,4.50
2019-02-21T21:13:33.866Z,5.70
2019-02-21T21:16:02.729Z,5.20
2019-02-21T21:18:31.592Z,5.20
2019-02-21T21:21:00.497Z,5.07
2019-02-21T21:23:29.277Z,5.23
2019-02-21T21:25:58.015Z,5.00
2019-02-21T21:28:26.802Z,5.10
2019-02-21T21:30:55.612Z,4.70
2019-02-21T21:33:24.456Z,5.17
2019-02-21T21:35:53.326Z,5.00
2019-02-21T21:38:24.368Z,4.70
2019-02-21T21:40:52.947Z,4.73
2019-02-21T21:43:21.742Z,4.93
2019-02-21T21:45:50.493Z,4.83
2019-02-21T21:48:19.243Z,5.00
2019-02-21T21:50:48.032Z,4.60
2019-02-21T21:53:16.775Z,4.80
2019-02-21T21:55:45.693Z,4.67
2019-02-21T21:58:14.530Z,5.23
2019-02-21T22:00:43.879Z,5.27
2019-02-21T22:03:12.660Z,4.80
2019-02-21T22:05:41.419Z,4.60
2019-02-21T22:08:10.184Z,4.67
2019-02-21T22:10:39.007Z,4.80
2019-02-21T22:13:07.819Z,5.07
2019-02-21T22:15:36.595Z,4.77
2019-02-21T22:18:05.368Z,5.43
2019-02-21T22:20:34.139Z,5.17
2019-02-21T22:23:02.982Z,4.97
2019-02-21T22:25:31.799Z,5.37
2019-02-21T22:28:00.561Z,4.77
2019-02-21T22:30:29.298Z,5.00
2019-02-21T22:32:58.058Z,4.77
2019-02-21T22:35:26.893Z,5.07
2019-02-21T22:37:55.838Z,5.27
2019-02-21T22:40:24.578Z,5.27
2019-02-21T22:42:53.353Z,4.80
2019-02-21T22:45:22.126Z,5.10
2019-02-21T22:47:50.976Z,4.97
2019-02-21T22:50:19.795Z,5.00
2019-02-21T22:52:48.613Z,5.00
2019-02-21T22:55:17.468Z,5.03
2019-02-21T22:57:46.288Z,5.30
2019-02-21T23:00:39.598Z,5.00
2019-02-21T23:03:08.838Z,5.30
2019-02-21T23:05:55.772Z,5.23
2019-02-21T23:08:43.653Z,5.23
2019-02-21T23:11:12.430Z,5.00
2019-02-21T23:13:41.176Z,4.73
2019-02-21T23:16:09.950Z,5.53
2019-02-21T23:18:38.755Z,6.13
2019-02-21T23:21:07.491Z,5.13
2019-02-21T23:23:36.258Z,5.17
2019-02-21T23:26:05.020Z,5.30
2019-02-21T23:28:33.784Z,4.53
2019-02-21T23:31:02.696Z,5.17
2019-02-21T23:33:32.732Z,5.17
2019-02-21T23:36:01.472Z,5.30
2019-02-21T23:38:31.800Z,5.27
2019-02-21T23:41:00.626Z,5.27
2019-02-21T23:43:29.454Z,5.77
2019-02-21T23:45:58.350Z,5.40
2019-02-21T23:48:27.102Z,5.87
2019-02-21T23:50:55.882Z,4.90
2019-02-21T23:53:24.658Z,5.27
2019-02-21T23:55:53.420Z,5.23
2019-02-21T23:58:22.264Z,5.40
